createdAt,value
2017-09-11T00:00:05.120Z,86.0
2017-09-11T00:01:05.895Z,86.0
2017-09-11T00:02:06.692Z,85.9
2017-09-11T00:03:07.480Z,86.5
2017-09-11T00:04:08.279Z,85.8
2017-09-11T00:05:09.262Z,85.4
2017-09-11T00:06:10.051Z,85.5
2017-09-11T00:07:10.796Z,85.4
2017-09-11T00:08:11.590Z,85.9
2017-09-11T00:09:12.323Z,85.4
2017-09-11T00:10:13.369Z,85.1
2017-09-11T00:11:14.170Z,85.4
2017-09-11T00:12:14.903Z,86.9
2017-09-11T00:13:15.707Z,85.0
2017-09-11T00:14:16.426Z,86.0
2017-09-11T00:15:17.399Z,85.4
2017-09-11T00:16:18.140Z,85.0
2017-09-11T00:17:18.881Z,85.9
2017-09-11T00:18:19.602Z,85.3
2017-09-11T00:19:20.336Z,84.1
2017-09-11T00:20:21.405Z,84.6
2017-09-11T00:21:22.191Z,85.1
2017-09-11T00:22:22.984Z,85.0
2017-09-11T00:23:23.733Z,84.9
2017-09-11T00:24:24.523Z,84.9
2017-09-11T00:25:25.242Z,84.7
2017-09-11T00:26:25.966Z,85.1
2017-09-11T00:27:27.133Z,85.6
2017-09-11T00:28:27.864Z,85.7
2017-09-11T00:29:28.669Z,86.0
2017-09-11T00:30:29.395Z,86.9
2017-09-11T00:31:30.123Z,86.2
2017-09-11T00:32:31.053Z,85.4
2017-09-11T00:33:31.785Z,85.3
2017-09-11T00:34:32.579Z,85.5
2017-09-11T00:35:33.308Z,85.0
2017-09-11T00:36:34.134Z,84.7
2017-09-11T00:37:36.087Z,85.0
2017-09-11T00:38:36.839Z,84.9
2017-09-11T00:39:37.575Z,85.9
2017-09-11T00:40:38.380Z,85.1
2017-09-11T00:41:39.109Z,84.8
2017-09-11T00:42:40.194Z,83.8
2017-09-11T00:43:40.923Z,85.1
2017-09-11T00:44:41.652Z,85.1
2017-09-11T00:45:42.394Z,84.0
2017-09-11T00:46:43.136Z,84.0
2017-09-11T00:47:44.315Z,84.0
2017-09-11T00:48:45.113Z,84.4
2017-09-11T00:49:45.870Z,84.8
2017-09-11T00:50:46.593Z,84.9
2017-09-11T00:51:47.392Z,85.4
2017-09-11T00:52:48.413Z,85.8
2017-09-11T00:53:49.214Z,86.6
2017-09-11T00:54:50.007Z,86.8
2017-09-11T00:55:50.719Z,86.6
2017-09-11T00:56:51.455Z,86.8
2017-09-11T00:57:52.438Z,86.5
2017-09-11T00:58:53.115Z,87.1
2017-09-11T00:59:53.909Z,87.3
2017-09-11T01:00:54.640Z,87.6
2017-09-11T01:01:55.474Z,87.6
2017-09-11T01:02:56.269Z,86.6
2017-09-11T01:03:57.203Z,86.6
2017-09-11T01:04:57.928Z,86.6
2017-09-11T01:05:58.655Z,86.1
2017-09-11T01:06:59.384Z,85.8
2017-09-11T01:08:00.274Z,85.5
2017-09-11T01:09:01.424Z,85.8
2017-09-11T01:10:02.228Z,85.4
2017-09-11T01:11:02.973Z,85.5
2017-09-11T01:12:03.700Z,86.3
2017-09-11T01:13:04.428Z,86.9
2017-09-11T01:14:05.448Z,86.6
2017-09-11T01:15:06.182Z,86.0
2017-09-11T01:16:06.920Z,85.8
2017-09-11T01:17:07.728Z,85.9
2017-09-11T01:18:08.520Z,85.9
2017-09-11T01:19:09.639Z,86.1
2017-09-11T01:20:10.371Z,86.4
2017-09-11T01:21:11.161Z,86.0
2017-09-11T01:22:11.892Z,85.9
2017-09-11T01:23:12.691Z,87.5
2017-09-11T01:24:13.773Z,86.9
2017-09-11T01:25:14.498Z,87.0
2017-09-11T01:26:15.218Z,86.3
2017-09-11T01:27:15.945Z,86.5
2017-09-11T01:28:16.683Z,87.0
2017-09-11T01:29:17.706Z,87.1
2017-09-11T01:30:18.492Z,86.7
2017-09-11T01:31:19.249Z,86.8
2017-09-11T01:32:19.985Z,87.3
2017-09-11T01:33:20.793Z,87.7
2017-09-11T01:34:21.824Z,87.5
2017-09-11T01:35:22.647Z,87.8
2017-09-11T01:36:23.318Z,87.3
2017-09-11T01:37:24.047Z,87.2
2017-09-11T01:38:24.853Z,86.4
2017-09-11T01:39:25.595Z,87.1
2017-09-11T01:40:26.666Z,87.0
2017-09-11T01:41:27.465Z,87.0
2017-09-11T01:42:28.276Z,86.5
2017-09-11T01:43:29.012Z,86.6
2017-09-11T01:44:29.730Z,86.4
2017-09-11T01:45:30.892Z,86.6
2017-09-11T01:46:31.623Z,86.4
2017-09-11T01:47:32.433Z,86.1
2017-09-11T01:48:33.157Z,86.6
2017-09-11T01:49:33.970Z,86.4
2017-09-11T01:50:35.103Z,87.1
2017-09-11T01:51:35.834Z,87.3
2017-09-11T01:52:36.559Z,86.6
2017-09-11T01:53:37.303Z,87.4
2017-09-11T01:54:38.035Z,87.7
2017-09-11T01:55:38.764Z,87.4
2017-09-11T01:56:39.516Z,88.4
2017-09-11T01:57:40.295Z,88.0
2017-09-11T01:58:41.278Z,88.4
2017-09-11T01:59:42.041Z,87.8
2017-09-11T02:00:42.863Z,87.5
2017-09-11T02:01:43.590Z,87.5
2017-09-11T02:02:44.318Z,87.3
2017-09-11T02:03:45.438Z,87.3
2017-09-11T02:04:46.161Z,86.3
2017-09-11T02:05:46.892Z,85.9
2017-09-11T02:06:47.609Z,86.2
2017-09-11T02:07:48.400Z,86.6
2017-09-11T02:08:49.485Z,86.5
2017-09-11T02:09:50.294Z,87.5
2017-09-11T02:10:51.052Z,86.9
2017-09-11T02:11:51.846Z,87.4
2017-09-11T02:12:52.586Z,87.4
2017-09-11T02:13:53.653Z,87.0
2017-09-11T02:14:54.374Z,87.3
2017-09-11T02:15:55.103Z,87.5
2017-09-11T02:16:55.844Z,87.8
2017-09-11T02:17:56.616Z,86.9
2017-09-11T02:18:57.826Z,86.6
2017-09-11T02:19:58.571Z,87.3
2017-09-11T02:20:59.352Z,86.9
2017-09-11T02:22:00.087Z,86.9
2017-09-11T02:23:00.874Z,86.2
2017-09-11T02:24:02.069Z,87.3
2017-09-11T02:25:02.870Z,86.9
2017-09-11T02:26:03.601Z,86.5
2017-09-11T02:27:04.333Z,86.5
2017-09-11T02:28:05.059Z,85.9
2017-09-11T02:29:06.198Z,86.6
2017-09-11T02:30:06.941Z,87.0
2017-09-11T02:31:07.721Z,86.1
2017-09-11T02:32:08.451Z,87.0
2017-09-11T02:33:09.170Z,87.5
2017-09-11T02:34:09.892Z,87.4
2017-09-11T02:35:10.610Z,87.9
2017-09-11T02:36:11.351Z,87.1
2017-09-11T02:37:12.493Z,87.9
2017-09-11T02:38:13.275Z,88.6
2017-09-11T02:39:14.037Z,88.1
2017-09-11T02:40:14.757Z,88.7
2017-09-11T02:41:15.469Z,89.5
2017-09-11T02:42:16.539Z,89.9
2017-09-11T02:43:17.280Z,89.6
2017-09-11T02:44:18.002Z,90.0
2017-09-11T02:45:18.725Z,89.9
2017-09-11T02:46:19.451Z,89.7
2017-09-11T02:47:20.535Z,90.1
2017-09-11T02:48:21.253Z,89.8
2017-09-11T02:49:21.970Z,90.2
2017-09-11T02:50:22.680Z,90.8
2017-09-11T02:51:23.474Z,90.2
2017-09-11T02:52:24.491Z,90.5
2017-09-11T02:53:25.293Z,90.6
2017-09-11T02:54:26.009Z,90.9
2017-09-11T02:55:26.743Z,90.3
2017-09-11T02:56:27.468Z,90.6
2017-09-11T02:57:28.503Z,91.4
2017-09-11T02:58:29.223Z,90.8
2017-09-11T02:59:29.956Z,90.2
2017-09-11T03:00:30.694Z,90.8
2017-09-11T03:01:31.419Z,91.3
2017-09-11T03:02:32.154Z,91.4
2017-09-11T03:03:32.883Z,91.0
2017-09-11T03:04:33.604Z,90.2
2017-09-11T03:05:34.326Z,90.5
2017-09-11T03:06:35.062Z,91.4
2017-09-11T03:07:36.222Z,92.0
2017-09-11T03:08:36.939Z,90.7
2017-09-11T03:09:37.671Z,90.4
2017-09-11T03:10:38.449Z,90.4
2017-09-11T03:11:39.189Z,90.6
2017-09-11T03:12:40.309Z,91.2
2017-09-11T03:13:41.038Z,90.6
2017-09-11T03:14:41.821Z,90.7
2017-09-11T03:15:42.557Z,91.4
2017-09-11T03:16:43.291Z,91.9
2017-09-11T03:17:44.057Z,92.4
2017-09-11T03:18:44.823Z,91.6
2017-09-11T03:19:45.539Z,92.1
2017-09-11T03:20:46.264Z,91.7
2017-09-11T03:21:47.077Z,92.0
2017-09-11T03:22:48.135Z,90.8
2017-09-11T03:23:48.869Z,90.8
2017-09-11T03:24:49.609Z,90.7
2017-09-11T03:25:50.420Z,90.3
2017-09-11T03:26:51.139Z,91.0
2017-09-11T03:27:52.279Z,91.5
2017-09-11T03:28:53.007Z,90.1
2017-09-11T03:29:53.739Z,90.1
2017-09-11T03:30:54.490Z,90.1
2017-09-11T03:31:55.254Z,89.9
2017-09-11T03:32:56.341Z,88.9
2017-09-11T03:33:57.119Z,89.2
2017-09-11T03:34:57.849Z,89.1
2017-09-11T03:35:58.594Z,90.0
2017-09-11T03:36:59.312Z,89.8
2017-09-11T03:38:00.248Z,90.4
2017-09-11T03:39:01.021Z,90.2
2017-09-11T03:40:01.759Z,91.4
2017-09-11T03:41:02.550Z,90.9
2017-09-11T03:42:03.282Z,90.4
2017-09-11T03:43:04.273Z,90.1
2017-09-11T03:44:05.019Z,89.9
2017-09-11T03:45:05.828Z,89.3
2017-09-11T03:46:06.589Z,88.6
2017-09-11T03:47:07.388Z,89.1
2017-09-11T03:48:08.532Z,88.4
2017-09-11T03:49:09.261Z,88.9
2017-09-11T03:50:10.061Z,88.8
2017-09-11T03:51:10.847Z,89.4
2017-09-11T03:52:11.644Z,89.7
2017-09-11T03:53:12.670Z,89.6
2017-09-11T03:54:13.408Z,91.1
2017-09-11T03:55:14.130Z,91.8
2017-09-11T03:56:14.865Z,92.3
2017-09-11T03:57:15.667Z,93.4
2017-09-11T03:58:16.396Z,93.8
2017-09-11T03:59:17.127Z,93.6
2017-09-11T04:00:18.297Z,92.4
2017-09-11T04:01:19.013Z,92.1
2017-09-11T04:02:19.816Z,92.4
2017-09-11T04:03:20.551Z,91.7
2017-09-11T04:04:21.287Z,90.8
2017-09-11T04:05:22.368Z,90.8
2017-09-11T04:06:23.034Z,91.0
2017-09-11T04:07:23.798Z,92.1
2017-09-11T04:08:24.530Z,91.5
2017-09-11T04:09:25.354Z,91.7
2017-09-11T04:10:26.434Z,90.4
2017-09-11T04:11:27.167Z,89.8
2017-09-11T04:12:27.894Z,90.0
2017-09-11T04:13:28.661Z,90.5
2017-09-11T04:14:29.450Z,89.7
2017-09-11T04:15:30.654Z,90.1
2017-09-11T04:16:31.384Z,90.3
2017-09-11T04:17:32.113Z,89.8
2017-09-11T04:18:32.878Z,89.8
2017-09-11T04:19:33.657Z,90.2
2017-09-11T04:20:34.708Z,89.9
2017-09-11T04:21:35.457Z,90.3
2017-09-11T04:22:36.240Z,89.8
2017-09-11T04:23:37.031Z,89.9
2017-09-11T04:24:37.827Z,89.8
2017-09-11T04:25:38.964Z,90.0
2017-09-11T04:26:39.689Z,89.1
2017-09-11T04:27:40.430Z,89.8
2017-09-11T04:28:41.219Z,89.8
2017-09-11T04:29:41.946Z,90.1
2017-09-11T04:30:43.378Z,89.8
2017-09-11T04:31:44.103Z,89.6
2017-09-11T04:32:44.834Z,89.3
2017-09-11T04:33:45.563Z,89.2
2017-09-11T04:34:46.285Z,89.4
2017-09-11T04:35:47.368Z,89.0
2017-09-11T04:36:48.103Z,88.6
2017-09-11T04:37:48.828Z,89.2
2017-09-11T04:38:49.564Z,89.1
2017-09-11T04:39:50.297Z,89.1
2017-09-11T04:40:51.443Z,89.3
2017-09-11T04:41:52.245Z,89.1
2017-09-11T04:42:53.049Z,89.4
2017-09-11T04:43:53.778Z,88.6
2017-09-11T04:44:54.554Z,89.5
2017-09-11T04:45:55.610Z,88.8
2017-09-11T04:46:56.413Z,88.8
2017-09-11T04:47:57.141Z,89.3
2017-09-11T04:48:57.882Z,89.8
2017-09-11T04:49:58.628Z,89.3
2017-09-11T04:50:59.411Z,89.0
2017-09-11T04:52:00.531Z,89.3
2017-09-11T04:53:01.262Z,89.4
2017-09-11T04:54:01.994Z,88.8
2017-09-11T04:55:02.812Z,89.1
2017-09-11T04:56:03.539Z,89.3
2017-09-11T04:57:04.570Z,89.5
2017-09-11T04:58:05.305Z,89.4
2017-09-11T04:59:06.103Z,89.9
2017-09-11T05:00:06.823Z,89.0
2017-09-11T05:01:07.555Z,89.3
2017-09-11T05:02:08.752Z,88.8
2017-09-11T05:03:09.472Z,89.2
2017-09-11T05:04:10.192Z,89.5
2017-09-11T05:05:10.922Z,89.3
2017-09-11T05:06:11.663Z,89.4
2017-09-11T05:07:12.459Z,89.7
2017-09-11T05:08:13.259Z,89.7
2017-09-11T05:09:14.300Z,89.8
2017-09-11T05:10:15.117Z,89.8
2017-09-11T05:11:15.881Z,91.2
2017-09-11T05:12:16.639Z,94.0
2017-09-11T05:13:17.382Z,96.8
2017-09-11T05:14:18.420Z,98.4
2017-09-11T05:15:19.209Z,100.0
2017-09-11T05:16:20.001Z,100.0
2017-09-11T05:17:20.743Z,100.0
2017-09-11T05:18:21.481Z,100.0
2017-09-11T05:19:22.459Z,100.0
2017-09-11T05:20:23.190Z,100.0
2017-09-11T05:21:23.989Z,100.0
2017-09-11T05:22:24.724Z,100.0
2017-09-11T05:23:25.472Z,100.0
2017-09-11T05:24:26.210Z,100.0
2017-09-11T05:25:26.944Z,100.0
2017-09-11T05:26:27.724Z,100.0
2017-09-11T05:27:28.759Z,100.0
2017-09-11T05:28:29.501Z,100.0
2017-09-11T05:29:30.275Z,100.0
2017-09-11T05:30:31.012Z,100.0
2017-09-11T05:31:31.745Z,100.0
2017-09-11T05:32:32.829Z,100.0
2017-09-11T05:33:33.568Z,100.0
2017-09-11T05:34:34.305Z,100.0
2017-09-11T05:35:35.043Z,100.0
2017-09-11T05:36:35.773Z,100.0
2017-09-11T05:37:36.800Z,100.0
2017-09-11T05:38:37.529Z,100.0
2017-09-11T05:39:38.253Z,100.0
2017-09-11T05:40:39.054Z,100.0
2017-09-11T05:41:39.872Z,100.0
2017-09-11T05:42:40.900Z,100.0
2017-09-11T05:43:41.628Z,100.0
2017-09-11T05:44:42.414Z,100.0
2017-09-11T05:45:43.224Z,100.0
2017-09-11T05:46:44.026Z,100.0
2017-09-11T05:47:45.197Z,100.0
2017-09-11T05:48:45.926Z,100.0
2017-09-11T05:49:46.693Z,100.0
2017-09-11T05:50:47.433Z,100.0
2017-09-11T05:51:48.170Z,100.0
2017-09-11T05:52:49.266Z,100.0
2017-09-11T05:53:50.007Z,100.0
2017-09-11T05:54:50.774Z,100.0
2017-09-11T05:55:51.564Z,100.0
2017-09-11T05:56:52.346Z,100.0
2017-09-11T05:57:53.492Z,100.0
2017-09-11T05:58:54.215Z,100.0
2017-09-11T05:59:55.013Z,100.0
2017-09-11T06:00:55.753Z,100.0
2017-09-11T06:01:56.483Z,100.0
2017-09-11T06:02:57.617Z,100.0
2017-09-11T06:03:58.428Z,100.0
2017-09-11T06:04:59.169Z,100.0
2017-09-11T06:05:59.912Z,100.0
2017-09-11T06:07:00.593Z,100.0
2017-09-11T06:08:01.642Z,100.0
2017-09-11T06:09:02.450Z,100.0
2017-09-11T06:10:03.249Z,100.0
2017-09-11T06:11:04.054Z,100.0
2017-09-11T06:12:04.843Z,100.0
2017-09-11T06:13:05.760Z,100.0
2017-09-11T06:14:06.500Z,100.0
2017-09-11T06:15:07.237Z,100.0
2017-09-11T06:16:07.974Z,100.0
2017-09-11T06:17:08.739Z,100.0
2017-09-11T06:18:09.669Z,100.0
2017-09-11T06:19:10.403Z,100.0
2017-09-11T06:20:11.114Z,100.0
2017-09-11T06:21:11.859Z,100.0
2017-09-11T06:22:12.614Z,100.0
2017-09-11T06:23:13.738Z,100.0
2017-09-11T06:24:14.469Z,100.0
2017-09-11T06:25:15.223Z,100.0
2017-09-11T06:26:16.022Z,100.0
2017-09-11T06:27:16.759Z,100.0
2017-09-11T06:28:17.703Z,100.0
2017-09-11T06:29:18.429Z,100.0
2017-09-11T06:30:19.169Z,100.0
2017-09-11T06:31:19.989Z,100.0
2017-09-11T06:32:20.749Z,100.0
2017-09-11T06:33:21.969Z,100.0
2017-09-11T06:34:22.704Z,100.0
2017-09-11T06:35:23.394Z,100.0
2017-09-11T06:36:24.191Z,100.0
2017-09-11T06:37:24.919Z,100.0
2017-09-11T06:38:25.998Z,100.0
2017-09-11T06:39:26.727Z,100.0
2017-09-11T06:40:27.520Z,100.0
2017-09-11T06:41:28.338Z,100.0
2017-09-11T06:42:29.087Z,100.0
2017-09-11T06:43:29.820Z,100.0
2017-09-11T06:44:30.570Z,100.0
2017-09-11T06:45:31.360Z,100.0
2017-09-11T06:46:32.091Z,100.0
2017-09-11T06:47:32.901Z,100.0
2017-09-11T06:48:33.951Z,100.0
2017-09-11T06:49:34.718Z,100.0
2017-09-11T06:50:35.456Z,100.0
2017-09-11T06:51:36.287Z,100.0
2017-09-11T06:52:37.068Z,100.0
2017-09-11T06:53:38.145Z,100.0
2017-09-11T06:54:38.882Z,100.0
2017-09-11T06:55:39.623Z,100.0
2017-09-11T06:56:41.211Z,100.0
2017-09-11T06:58:45.715Z,100.0
2017-09-11T06:59:47.646Z,100.0
2017-09-11T07:00:49.493Z,100.0
2017-09-11T07:01:50.777Z,100.0
2017-09-11T07:02:52.971Z,100.0
2017-09-11T07:03:53.980Z,100.0
2017-09-11T07:04:55.577Z,100.0
2017-09-11T07:05:56.319Z,100.0
2017-09-11T07:06:57.059Z,100.0
2017-09-11T07:07:58.128Z,100.0
2017-09-11T07:08:59.098Z,100.0
2017-09-11T07:10:00.133Z,100.0
2017-09-11T07:11:00.854Z,100.0
2017-09-11T07:12:01.588Z,100.0
2017-09-11T07:13:02.754Z,100.0
2017-09-11T07:14:03.536Z,100.0
2017-09-11T07:15:04.291Z,100.0
2017-09-11T07:16:05.018Z,100.0
2017-09-11T07:19:57.282Z,100.0
2017-09-11T07:20:58.061Z,100.0
2017-09-11T07:21:58.784Z,100.0
2017-09-11T07:22:59.518Z,100.0
2017-09-11T07:24:00.324Z,100.0
2017-09-11T07:25:01.519Z,100.0
2017-09-11T07:26:02.326Z,100.0
2017-09-11T07:27:03.062Z,100.0
2017-09-11T07:28:04.304Z,100.0
2017-09-11T07:29:05.556Z,100.0
2017-09-11T07:30:06.676Z,100.0
2017-09-11T07:31:07.392Z,100.0
2017-09-11T07:32:08.214Z,100.0
2017-09-11T07:33:08.960Z,100.0
2017-09-11T07:34:10.057Z,100.0
2017-09-11T07:35:10.738Z,100.0
2017-09-11T07:36:11.537Z,100.0
2017-09-11T07:37:12.313Z,100.0
2017-09-11T07:38:13.052Z,100.0
2017-09-11T07:39:14.087Z,100.0
2017-09-11T07:40:14.934Z,100.0
2017-09-11T07:41:15.632Z,100.0
2017-09-11T07:42:16.369Z,100.0
2017-09-11T07:43:17.130Z,100.0
2017-09-11T07:44:18.098Z,100.0
2017-09-11T07:45:18.821Z,100.0
2017-09-11T07:46:19.569Z,100.0
2017-09-11T07:47:20.280Z,100.0
2017-09-11T07:48:21.000Z,100.0
2017-09-11T07:49:21.752Z,100.0
2017-09-11T07:50:22.538Z,100.0
2017-09-11T07:51:23.268Z,100.0
2017-09-11T07:52:24.074Z,100.0
2017-09-11T07:53:24.865Z,100.0
2017-09-11T07:54:25.969Z,100.0
2017-09-11T07:55:26.750Z,100.0
2017-09-11T07:56:27.538Z,100.0
2017-09-11T07:57:28.270Z,100.0
2017-09-11T07:58:29.067Z,100.0
2017-09-11T07:59:30.234Z,100.0
2017-09-11T08:00:30.981Z,100.0
2017-09-11T08:01:31.711Z,100.0
2017-09-11T08:02:32.565Z,100.0
2017-09-11T08:03:33.368Z,100.0
2017-09-11T08:04:34.418Z,100.0
2017-09-11T08:05:35.138Z,100.0
2017-09-11T08:06:35.871Z,100.0
2017-09-11T08:07:36.620Z,100.0
2017-09-11T08:08:37.365Z,100.0
2017-09-11T08:09:38.545Z,100.0
2017-09-11T08:10:39.285Z,100.0
2017-09-11T08:11:40.109Z,100.0
2017-09-11T08:12:40.921Z,100.0
2017-09-11T08:13:41.657Z,100.0
2017-09-11T08:14:42.800Z,100.0
2017-09-11T08:15:43.571Z,100.0
2017-09-11T08:16:44.370Z,100.0
2017-09-11T08:17:45.180Z,100.0
2017-09-11T08:18:45.921Z,100.0
2017-09-11T08:19:46.924Z,100.0
2017-09-11T08:20:47.653Z,100.0
2017-09-11T08:21:48.517Z,100.0
2017-09-11T08:22:49.285Z,100.0
2017-09-11T08:23:50.017Z,100.0
2017-09-11T08:24:51.260Z,100.0
2017-09-11T08:25:52.095Z,100.0
2017-09-11T08:26:52.815Z,100.0
2017-09-11T08:27:53.627Z,100.0
2017-09-11T08:28:54.391Z,100.0
2017-09-11T08:29:55.617Z,100.0
2017-09-11T08:30:56.428Z,100.0
2017-09-11T08:31:57.174Z,100.0
2017-09-11T08:32:57.960Z,100.0
2017-09-11T08:33:58.699Z,100.0
2017-09-11T08:34:59.504Z,100.0
2017-09-11T08:36:00.323Z,100.0
2017-09-11T08:37:01.364Z,100.0
2017-09-11T08:38:02.090Z,100.0
2017-09-11T08:39:02.824Z,100.0
2017-09-11T08:40:03.575Z,100.0
2017-09-11T08:41:04.337Z,100.0
2017-09-11T08:42:05.498Z,100.0
2017-09-11T08:43:06.227Z,99.9
2017-09-11T08:44:07.026Z,99.7
2017-09-11T08:45:07.850Z,99.4
2017-09-11T08:46:08.595Z,100.0
2017-09-11T08:47:09.762Z,99.4
2017-09-11T08:48:10.491Z,99.8
2017-09-11T08:49:11.221Z,98.6
2017-09-11T08:50:11.958Z,99.7
2017-09-11T08:51:12.694Z,100.0
2017-09-11T08:52:13.823Z,99.4
2017-09-11T08:53:14.618Z,97.8
2017-09-11T08:54:15.382Z,97.9
2017-09-11T08:55:16.132Z,96.4
2017-09-11T08:56:16.910Z,95.6
2017-09-11T08:57:17.652Z,95.5
2017-09-11T08:58:18.388Z,96.3
2017-09-11T08:59:19.114Z,95.3
2017-09-11T09:00:19.924Z,95.0
2017-09-11T09:01:21.044Z,94.1
2017-09-11T09:02:21.823Z,95.4
2017-09-11T09:03:22.559Z,96.8
2017-09-11T09:04:23.243Z,96.9
2017-09-11T09:05:23.976Z,95.2
2017-09-11T09:06:25.146Z,92.8
2017-09-11T09:07:25.898Z,93.6
2017-09-11T09:08:26.659Z,94.8
2017-09-11T09:09:27.392Z,95.0
2017-09-11T09:10:28.119Z,91.7
2017-09-11T09:11:29.064Z,91.1
2017-09-11T09:12:29.799Z,91.8
2017-09-11T09:13:30.533Z,92.3
2017-09-11T09:14:31.330Z,91.2
2017-09-11T09:15:32.065Z,91.4
2017-09-11T09:16:33.103Z,93.1
2017-09-11T09:17:33.849Z,91.3
2017-09-11T09:18:34.589Z,92.2
2017-09-11T09:19:35.405Z,92.0
2017-09-11T09:20:36.133Z,91.3
2017-09-11T09:21:37.244Z,92.8
2017-09-11T09:22:37.971Z,92.5
2017-09-11T09:23:38.793Z,95.3
2017-09-11T09:24:39.525Z,89.8
2017-09-11T09:25:40.309Z,87.6
2017-09-11T09:26:41.305Z,86.4
2017-09-11T09:27:42.113Z,86.6
2017-09-11T09:28:42.854Z,86.3
2017-09-11T09:29:43.594Z,87.5
2017-09-11T09:30:44.335Z,90.4
2017-09-11T09:31:45.435Z,87.9
2017-09-11T09:32:46.181Z,89.5
2017-09-11T09:33:46.924Z,91.4
2017-09-11T09:34:47.674Z,90.0
2017-09-11T09:35:48.404Z,87.8
2017-09-11T09:36:49.553Z,88.3
2017-09-11T09:37:50.302Z,88.0
2017-09-11T09:38:51.095Z,87.3
2017-09-11T09:39:51.889Z,86.6
2017-09-11T09:40:52.634Z,87.2
2017-09-11T09:41:53.807Z,85.0
2017-09-11T09:42:54.592Z,85.0
2017-09-11T09:43:55.390Z,87.2
2017-09-11T09:44:56.132Z,87.8
2017-09-11T09:45:56.853Z,85.9
2017-09-11T09:46:57.963Z,85.7
2017-09-11T09:47:58.705Z,86.5
2017-09-11T09:48:59.549Z,85.3
2017-09-11T09:50:00.255Z,85.7
2017-09-11T09:51:01.054Z,85.4
2017-09-11T09:52:01.794Z,86.4
2017-09-11T09:53:02.525Z,85.2
2017-09-11T09:54:03.279Z,86.6
2017-09-11T09:55:04.077Z,86.3
2017-09-11T09:56:04.874Z,85.8
2017-09-11T09:57:05.976Z,84.7
2017-09-11T09:58:06.757Z,85.5
2017-09-11T09:59:07.553Z,86.9
2017-09-11T10:00:08.307Z,86.1
2017-09-11T10:01:09.038Z,85.4
2017-09-11T10:02:10.190Z,87.4
2017-09-11T10:03:10.957Z,85.3
2017-09-11T10:04:11.730Z,84.0
2017-09-11T10:05:12.480Z,81.4
2017-09-11T10:06:13.276Z,82.6
2017-09-11T10:07:14.324Z,85.6
2017-09-11T10:08:15.065Z,83.6
2017-09-11T10:09:15.860Z,80.6
2017-09-11T10:10:16.590Z,79.4
2017-09-11T10:11:17.339Z,80.1
2017-09-11T10:12:18.433Z,82.1
2017-09-11T10:13:19.230Z,79.8
2017-09-11T10:14:19.963Z,82.8
2017-09-11T10:15:20.706Z,81.9
2017-09-11T10:16:21.433Z,78.1
2017-09-11T10:17:22.171Z,79.1
2017-09-11T10:18:22.931Z,81.2
2017-09-11T10:19:23.740Z,78.3
2017-09-11T10:20:24.490Z,80.5
2017-09-11T10:21:25.548Z,80.7
2017-09-11T10:22:26.280Z,78.9
2017-09-11T10:23:27.021Z,79.7
2017-09-11T10:24:27.764Z,76.7
2017-09-11T10:25:28.560Z,76.6
2017-09-11T10:26:29.497Z,74.4
2017-09-11T10:27:30.231Z,74.4
2017-09-11T10:28:30.985Z,70.1
2017-09-11T10:29:31.817Z,72.3
2017-09-11T10:30:32.555Z,73.9
2017-09-11T10:31:33.648Z,74.4
2017-09-11T10:32:34.400Z,73.6
2017-09-11T10:33:35.132Z,74.2
2017-09-11T10:34:35.870Z,72.1
2017-09-11T10:35:36.651Z,72.5
2017-09-11T10:36:37.746Z,76.1
2017-09-11T10:37:38.510Z,76.6
2017-09-11T10:38:39.240Z,73.2
2017-09-11T10:39:39.977Z,72.3
2017-09-11T10:40:40.784Z,73.5
2017-09-11T10:41:41.825Z,73.6
2017-09-11T10:42:42.577Z,73.7
2017-09-11T10:43:43.314Z,71.6
2017-09-11T10:44:44.105Z,72.0
2017-09-11T10:45:44.843Z,73.3
2017-09-11T10:46:45.833Z,74.5
2017-09-11T10:47:46.574Z,73.2
2017-09-11T10:48:47.301Z,74.3
2017-09-11T10:49:48.105Z,73.6
2017-09-11T10:50:48.845Z,74.2
2017-09-11T10:51:49.954Z,76.4
2017-09-11T10:52:50.718Z,74.8
2017-09-11T10:53:51.518Z,70.7
2017-09-11T10:54:52.338Z,71.5
2017-09-11T10:55:53.135Z,73.3
2017-09-11T10:56:54.324Z,69.4
2017-09-11T10:57:55.058Z,68.8
2017-09-11T10:58:55.806Z,66.6
2017-09-11T10:59:56.551Z,66.5
2017-09-11T11:00:57.291Z,66.3
2017-09-11T11:01:58.262Z,67.6
2017-09-11T11:02:59.056Z,66.4
2017-09-11T11:03:59.793Z,66.5
2017-09-11T11:05:00.535Z,66.0
2017-09-11T11:06:01.296Z,66.2
2017-09-11T11:07:02.409Z,65.2
2017-09-11T11:08:03.201Z,65.7
2017-09-11T11:09:03.943Z,65.4
2017-09-11T11:10:04.685Z,66.7
2017-09-11T11:11:05.485Z,66.6
2017-09-11T11:12:06.524Z,62.2
2017-09-11T11:13:07.265Z,62.2
2017-09-11T11:14:08.083Z,65.6
2017-09-11T11:15:08.839Z,65.7
2017-09-11T11:16:09.632Z,66.5
2017-09-11T11:17:10.692Z,62.4
2017-09-11T11:18:11.459Z,61.9
2017-09-11T11:19:12.207Z,63.9
2017-09-11T11:20:13.032Z,65.5
2017-09-11T11:21:13.800Z,68.0
2017-09-11T11:22:14.849Z,68.2
2017-09-11T11:23:15.661Z,69.6
2017-09-11T11:24:16.463Z,67.6
2017-09-11T11:25:17.206Z,67.7
2017-09-11T11:26:17.942Z,66.8
2017-09-11T11:27:19.029Z,66.0
2017-09-11T11:28:19.762Z,66.9
2017-09-11T11:29:20.499Z,68.7
2017-09-11T11:30:21.243Z,67.0
2017-09-11T11:31:22.033Z,65.3
2017-09-11T11:32:23.120Z,65.9
2017-09-11T11:33:23.881Z,66.5
2017-09-11T11:34:24.605Z,66.0
2017-09-11T11:35:25.362Z,64.2
2017-09-11T11:36:26.166Z,58.4
2017-09-11T11:37:27.386Z,60.8
2017-09-11T11:38:28.201Z,61.4
2017-09-11T11:39:28.942Z,62.7
2017-09-11T11:40:29.762Z,59.1
2017-09-11T11:41:30.543Z,57.4
2017-09-11T11:42:31.593Z,58.0
2017-09-11T11:43:32.343Z,58.4
2017-09-11T11:44:33.070Z,58.3
2017-09-11T11:45:33.826Z,57.0
2017-09-11T11:46:34.550Z,58.1
2017-09-11T11:47:35.480Z,58.9
2017-09-11T11:48:36.223Z,58.2
2017-09-11T11:49:36.961Z,56.0
2017-09-11T11:50:37.703Z,55.5
2017-09-11T11:51:38.444Z,56.6
2017-09-11T11:52:39.542Z,56.0
2017-09-11T11:53:40.347Z,55.8
2017-09-11T11:54:41.181Z,54.9
2017-09-11T11:55:41.999Z,54.3
2017-09-11T11:56:42.843Z,52.4
2017-09-11T11:57:43.984Z,55.3
2017-09-11T11:58:44.724Z,57.5
2017-09-11T11:59:45.460Z,58.6
2017-09-11T12:00:46.208Z,61.7
2017-09-11T12:01:46.986Z,60.3
2017-09-11T12:02:48.089Z,60.2
2017-09-11T12:03:48.832Z,57.4
2017-09-11T12:04:49.570Z,56.0
2017-09-11T12:05:50.314Z,56.7
2017-09-11T12:06:51.051Z,56.3
2017-09-11T12:07:52.059Z,57.5
2017-09-11T12:08:52.811Z,55.8
2017-09-11T12:09:53.559Z,56.3
2017-09-11T12:10:54.305Z,56.3
2017-09-11T12:11:55.069Z,55.8
2017-09-11T12:12:56.269Z,55.9
2017-09-11T12:13:57.023Z,55.5
2017-09-11T12:14:57.804Z,55.6
2017-09-11T12:15:58.553Z,57.1
2017-09-11T12:16:59.280Z,61.4
2017-09-11T12:18:00.315Z,59.8
2017-09-11T12:19:01.068Z,61.5
2017-09-11T12:20:01.877Z,64.0
2017-09-11T12:21:02.674Z,61.0
2017-09-11T12:22:03.477Z,62.4
2017-09-11T12:23:04.620Z,63.4
2017-09-11T12:24:05.370Z,64.7
2017-09-11T12:25:06.113Z,62.1
2017-09-11T12:26:06.900Z,64.6
2017-09-11T12:27:07.642Z,63.8
2017-09-11T12:28:08.657Z,65.3
2017-09-11T12:29:09.468Z,65.3
2017-09-11T12:30:10.289Z,63.5
2017-09-11T12:31:11.029Z,64.6
2017-09-11T12:32:11.850Z,66.5
2017-09-11T12:33:12.933Z,66.4
2017-09-11T12:34:13.669Z,66.5
2017-09-11T12:35:14.475Z,66.4
2017-09-11T12:36:15.275Z,65.6
2017-09-11T12:37:16.015Z,63.8
2017-09-11T12:38:16.846Z,62.4
2017-09-11T12:39:17.647Z,61.4
2017-09-11T12:40:18.375Z,61.7
2017-09-11T12:41:19.122Z,61.5
2017-09-11T12:42:19.854Z,61.7
2017-09-11T12:43:20.901Z,63.5
2017-09-11T12:44:21.691Z,65.1
2017-09-11T12:45:22.438Z,64.2
2017-09-11T12:46:23.250Z,64.4
2017-09-11T12:47:24.000Z,64.6
2017-09-11T12:48:24.813Z,65.1
2017-09-11T12:49:25.549Z,64.6
2017-09-11T12:50:26.293Z,65.7
2017-09-11T12:51:27.354Z,67.1
2017-09-11T12:52:28.095Z,67.0
2017-09-11T12:53:28.903Z,69.7
2017-09-11T12:54:29.722Z,71.8
2017-09-11T12:55:30.504Z,76.3
2017-09-11T12:56:31.693Z,79.0
2017-09-11T12:57:32.444Z,85.2
2017-09-11T12:58:33.251Z,83.3
2017-09-11T12:59:34.070Z,83.6
2017-09-11T13:00:34.805Z,82.5
2017-09-11T13:01:35.904Z,85.3
2017-09-11T13:02:36.652Z,83.8
2017-09-11T13:03:37.406Z,85.6
2017-09-11T13:04:38.087Z,86.2
2017-09-11T13:05:38.835Z,83.5
2017-09-11T13:06:39.973Z,82.4
2017-09-11T13:07:40.779Z,81.2
2017-09-11T13:08:41.524Z,81.1
2017-09-11T13:09:42.243Z,82.5
2017-09-11T13:10:42.986Z,75.8
2017-09-11T13:11:44.060Z,76.9
2017-09-11T13:12:44.869Z,78.3
2017-09-11T13:13:45.649Z,81.2
2017-09-11T13:14:46.444Z,80.3
2017-09-11T13:15:47.183Z,79.5
2017-09-11T13:16:48.325Z,76.6
2017-09-11T13:17:49.076Z,75.0
2017-09-11T13:18:49.893Z,74.9
2017-09-11T13:19:50.626Z,76.3
2017-09-11T13:20:51.353Z,76.9
2017-09-11T13:21:52.384Z,78.9
2017-09-11T13:22:53.130Z,77.3
2017-09-11T13:23:53.923Z,76.3
2017-09-11T13:24:54.657Z,72.9
2017-09-11T13:25:55.401Z,71.7